createdAt,value
2018-09-09T00:00:21.232Z,17.60
2018-09-09T00:02:49.248Z,17.58
2018-09-09T00:05:17.299Z,17.65
2018-09-09T00:07:45.438Z,17.48
2018-09-09T00:10:13.643Z,17.50
2018-09-09T00:12:41.692Z,17.57
2018-09-09T00:15:09.922Z,17.65
2018-09-09T00:17:38.077Z,17.65
2018-09-09T00:20:06.146Z,17.65
2018-09-09T00:22:34.156Z,17.67
2018-09-09T00:25:02.201Z,17.54
2018-09-09T00:27:30.221Z,17.65
2018-09-09T00:29:58.372Z,17.59
2018-09-09T00:32:26.560Z,17.51
2018-09-09T00:34:54.660Z,17.66
2018-09-09T00:37:22.838Z,17.67
2018-09-09T00:39:50.832Z,17.69
2018-09-09T00:42:18.853Z,17.58
2018-09-09T00:44:46.920Z,17.44
2018-09-09T00:47:14.940Z,17.39
2018-09-09T00:49:48.390Z,17.41
2018-09-09T00:52:21.820Z,17.34
2018-09-09T00:54:49.994Z,17.23
2018-09-09T00:57:18.153Z,17.33
2018-09-09T00:59:46.449Z,17.23
2018-09-09T01:02:14.641Z,17.32
2018-09-09T01:04:42.693Z,17.27
2018-09-09T01:07:10.726Z,17.36
2018-09-09T01:09:38.728Z,17.27
2018-09-09T01:12:06.759Z,17.20
2018-09-09T01:14:35.364Z,17.27
2018-09-09T01:17:03.456Z,17.23
2018-09-09T01:19:31.571Z,17.35
2018-09-09T01:21:59.736Z,17.43
2018-09-09T01:24:27.780Z,17.37
2018-09-09T01:26:55.801Z,17.13
2018-09-09T01:29:24.065Z,17.07
2018-09-09T01:31:52.166Z,17.06
2018-09-09T01:34:20.308Z,17.13
2018-09-09T01:36:48.504Z,17.02
2018-09-09T01:39:16.616Z,17.08
2018-09-09T01:41:44.816Z,17.03
2018-09-09T01:44:12.836Z,17.05
2018-09-09T01:46:40.849Z,17.08
2018-09-09T01:49:08.856Z,17.07
2018-09-09T01:51:36.868Z,17.10
2018-09-09T01:54:04.921Z,16.98
2018-09-09T01:56:32.941Z,16.93
2018-09-09T01:59:01.037Z,16.98
2018-09-09T02:01:29.104Z,17.06
2018-09-09T02:03:57.284Z,17.03
2018-09-09T02:06:25.309Z,17.06
2018-09-09T02:08:53.372Z,17.03
2018-09-09T02:11:21.426Z,17.01
2018-09-09T02:13:49.481Z,17.01
2018-09-09T02:16:17.494Z,16.99
2018-09-09T02:18:45.505Z,17.09
2018-09-09T02:21:13.545Z,17.08
2018-09-09T02:23:41.805Z,17.16
2018-09-09T02:26:09.855Z,17.02
2018-09-09T02:28:38.009Z,17.06
2018-09-09T02:31:07.061Z,17.02
2018-09-09T02:33:35.094Z,16.97
2018-09-09T02:36:03.100Z,17.05
2018-09-09T02:38:31.143Z,16.91
2018-09-09T02:40:59.192Z,16.84
2018-09-09T02:43:27.270Z,16.70
2018-09-09T02:45:55.321Z,16.63
2018-09-09T02:48:23.677Z,16.73
2018-09-09T02:50:51.835Z,16.68
2018-09-09T02:53:19.859Z,16.67
2018-09-09T02:55:47.917Z,16.66
2018-09-09T02:58:17.153Z,16.64
2018-09-09T03:00:45.794Z,16.53
2018-09-09T03:03:13.958Z,16.60
2018-09-09T03:05:42.700Z,16.75
2018-09-09T03:08:10.763Z,16.64
2018-09-09T03:10:39.416Z,16.78
2018-09-09T03:13:07.457Z,16.73
2018-09-09T03:15:35.591Z,16.54
2018-09-09T03:18:03.968Z,16.57
2018-09-09T03:20:31.999Z,16.67
2018-09-09T03:23:00.140Z,16.51
2018-09-09T03:25:28.252Z,16.62
2018-09-09T03:27:56.360Z,16.67
2018-09-09T03:30:24.378Z,16.50
2018-09-09T03:32:52.376Z,16.37
2018-09-09T03:35:20.391Z,16.39
2018-09-09T03:37:48.414Z,16.42
2018-09-09T03:40:16.513Z,16.38
2018-09-09T03:42:44.576Z,16.40
2018-09-09T03:45:12.672Z,16.41
2018-09-09T03:47:40.704Z,16.37
2018-09-09T03:50:08.793Z,16.38
2018-09-09T03:52:36.857Z,16.45
2018-09-09T03:55:04.921Z,16.26
2018-09-09T03:57:32.954Z,16.34
2018-09-09T04:00:00.961Z,16.39
2018-09-09T04:02:28.970Z,16.41
2018-09-09T04:04:57.006Z,16.46
2018-09-09T04:07:25.051Z,16.40
2018-09-09T04:09:53.060Z,16.22
2018-09-09T04:12:21.092Z,16.14
2018-09-09T04:14:49.162Z,16.15
2018-09-09T04:17:17.221Z,16.14
2018-09-09T04:19:45.281Z,16.09
2018-09-09T04:22:13.437Z,16.05
2018-09-09T04:24:41.581Z,16.13
2018-09-09T04:27:09.605Z,16.14
2018-09-09T04:29:37.617Z,16.21
2018-09-09T04:32:05.804Z,16.22
2018-09-09T04:34:33.800Z,16.18
2018-09-09T04:37:01.833Z,16.25
2018-09-09T04:39:29.928Z,16.16
2018-09-09T04:41:57.937Z,16.19
2018-09-09T04:44:26.039Z,16.08
2018-09-09T04:46:54.140Z,16.12
2018-09-09T04:49:22.256Z,16.17
2018-09-09T04:51:50.431Z,16.14
2018-09-09T04:54:19.242Z,16.08
2018-09-09T04:56:47.265Z,16.00
2018-09-09T04:59:15.296Z,16.08
2018-09-09T05:01:43.344Z,15.98
2018-09-09T05:04:11.413Z,15.96
2018-09-09T05:06:39.464Z,16.07
2018-09-09T05:09:07.914Z,16.08
2018-09-09T05:11:36.117Z,15.98
2018-09-09T05:14:04.280Z,15.98
2018-09-09T05:16:32.419Z,16.11
2018-09-09T05:19:00.511Z,16.18
2018-09-09T05:21:28.884Z,16.25
2018-09-09T05:23:57.128Z,16.28
2018-09-09T05:26:25.145Z,16.31
2018-09-09T05:28:53.227Z,16.41
2018-09-09T05:31:21.327Z,16.40
2018-09-09T05:33:49.397Z,16.49
2018-09-09T05:36:17.511Z,16.55
2018-09-09T05:38:45.867Z,16.59
2018-09-09T05:41:13.970Z,16.61
2018-09-09T05:43:41.997Z,16.65
2018-09-09T05:46:10.037Z,16.63
2018-09-09T05:48:38.079Z,16.83
2018-09-09T05:51:06.925Z,16.89
2018-09-09T05:53:34.943Z,17.16
2018-09-09T05:56:02.988Z,17.39
2018-09-09T05:58:31.031Z,17.57
2018-09-09T06:00:59.145Z,17.93
2018-09-09T06:03:27.249Z,18.45
2018-09-09T06:05:55.329Z,18.90
2018-09-09T06:08:23.328Z,19.26
2018-09-09T06:10:53.312Z,19.66
2018-09-09T06:13:22.033Z,19.99
2018-09-09T06:15:50.241Z,20.23
2018-09-09T06:18:18.308Z,21.18
2018-09-09T06:20:46.458Z,22.24
2018-09-09T06:23:15.025Z,23.72
2018-09-09T06:25:43.212Z,24.52
2018-09-09T06:28:11.280Z,25.01
2018-09-09T06:30:39.244Z,25.09
2018-09-09T06:33:07.512Z,25.24
2018-09-09T06:35:35.566Z,25.12
2018-09-09T06:38:03.604Z,24.63
2018-09-09T06:40:31.592Z,24.48
2018-09-09T06:42:59.693Z,24.22
2018-09-09T06:45:27.981Z,23.96
2018-09-09T06:47:56.274Z,24.41
2018-09-09T06:50:24.326Z,25.06
2018-09-09T06:52:52.376Z,25.86
2018-09-09T06:55:20.478Z,25.51
2018-09-09T06:57:48.481Z,25.16
2018-09-09T07:00:17.541Z,24.95
2018-09-09T07:02:45.621Z,24.55
2018-09-09T07:05:13.741Z,24.26
2018-09-09T07:07:41.851Z,24.19
2018-09-09T07:10:09.919Z,23.66
2018-09-09T07:12:38.034Z,23.44
2018-09-09T07:15:06.171Z,23.10
2018-09-09T07:17:34.273Z,22.87
2018-09-09T07:20:02.281Z,22.72
2018-09-09T07:22:30.353Z,22.30
2018-09-09T07:24:58.356Z,22.09
2018-09-09T07:27:26.484Z,21.92
2018-09-09T07:29:54.602Z,22.02
2018-09-09T07:32:22.717Z,21.96
2018-09-09T07:34:50.736Z,21.92
2018-09-09T07:37:19.054Z,22.20
2018-09-09T07:39:47.223Z,22.54
2018-09-09T07:42:15.260Z,23.07
2018-09-09T07:44:43.393Z,23.72
2018-09-09T07:47:11.440Z,24.28
2018-09-09T07:49:39.557Z,25.20
2018-09-09T07:52:07.792Z,26.79
2018-09-09T07:54:35.836Z,28.53
2018-09-09T07:57:03.959Z,30.68
2018-09-09T07:59:33.804Z,32.24
2018-09-09T08:02:01.917Z,33.09
2018-09-09T08:04:30.161Z,34.42
2018-09-09T08:06:58.374Z,35.19
2018-09-09T08:09:26.389Z,36.44
2018-09-09T08:11:54.444Z,37.60
2018-09-09T08:14:22.477Z,38.12
2018-09-09T08:16:50.489Z,38.62
2018-09-09T08:19:18.605Z,38.15
2018-09-09T08:21:46.705Z,38.91
2018-09-09T08:24:14.738Z,39.28
2018-09-09T08:26:42.849Z,39.39
2018-09-09T08:29:10.967Z,39.45
2018-09-09T08:31:38.964Z,39.57
2018-09-09T08:34:06.999Z,39.26
2018-09-09T08:36:35.004Z,38.57
2018-09-09T08:39:03.105Z,36.25
2018-09-09T08:41:32.265Z,35.01
2018-09-09T08:44:00.309Z,34.23
2018-09-09T08:46:28.317Z,34.11
2018-09-09T08:48:56.333Z,34.94
2018-09-09T08:51:24.366Z,35.77
2018-09-09T08:53:52.397Z,36.28
2018-09-09T08:56:20.433Z,35.86
2018-09-09T08:58:48.561Z,36.26
2018-09-09T09:01:16.605Z,36.33
2018-09-09T09:03:45.114Z,35.91
2018-09-09T09:06:13.137Z,35.28
2018-09-09T09:08:41.191Z,35.52
2018-09-09T09:11:09.188Z,35.86
2018-09-09T09:13:37.225Z,36.10
2018-09-09T09:16:05.561Z,36.07
2018-09-09T09:18:33.718Z,35.81
2018-09-09T09:21:01.782Z,35.02
2018-09-09T09:23:29.861Z,34.18
2018-09-09T09:25:57.889Z,33.28
2018-09-09T09:28:25.942Z,33.13
2018-09-09T09:30:54.417Z,32.94
2018-09-09T09:33:22.725Z,31.90
2018-09-09T09:35:53.123Z,31.39
2018-09-09T09:38:22.110Z,30.50
2018-09-09T09:40:50.848Z,29.97
2018-09-09T09:43:18.932Z,29.19
2018-09-09T09:45:47.096Z,28.93
2018-09-09T09:48:15.245Z,28.36
2018-09-09T09:50:43.582Z,28.10
2018-09-09T09:53:11.783Z,28.12
2018-09-09T09:55:39.957Z,27.70
2018-09-09T09:58:07.989Z,27.70
2018-09-09T10:00:41.401Z,27.95
2018-09-09T10:03:09.438Z,28.14
2018-09-09T10:05:37.568Z,27.65
2018-09-09T10:08:05.935Z,27.51
2018-09-09T10:10:34.005Z,27.39
2018-09-09T10:13:02.036Z,27.79
2018-09-09T10:15:30.202Z,28.11
2018-09-09T10:17:58.208Z,28.16
2018-09-09T10:20:26.313Z,28.25
2018-09-09T10:22:54.400Z,28.07
2018-09-09T10:25:22.454Z,27.59
2018-09-09T10:27:50.486Z,27.23
2018-09-09T10:30:18.581Z,26.97
2018-09-09T10:32:46.764Z,26.82
2018-09-09T10:35:14.781Z,26.83
2018-09-09T10:37:42.781Z,27.02
2018-09-09T10:40:10.992Z,27.07
2018-09-09T10:42:39.005Z,27.00
2018-09-09T10:45:07.040Z,26.90
2018-09-09T10:47:35.162Z,27.16
2018-09-09T10:50:03.168Z,27.22
2018-09-09T10:52:31.197Z,27.59
2018-09-09T10:54:59.320Z,27.76
2018-09-09T10:57:27.385Z,27.56
2018-09-09T10:59:55.401Z,27.66
2018-09-09T11:02:23.729Z,27.75
2018-09-09T11:04:51.736Z,27.71
2018-09-09T11:07:20.872Z,27.65
2018-09-09T11:09:48.908Z,27.81
2018-09-09T11:12:16.920Z,28.16
2018-09-09T11:14:44.929Z,27.96
2018-09-09T11:17:12.973Z,28.28
2018-09-09T11:19:40.984Z,28.02
2018-09-09T11:22:09.077Z,27.75
2018-09-09T11:24:37.154Z,27.30
2018-09-09T11:27:05.249Z,27.08
2018-09-09T11:29:33.299Z,27.34
2018-09-09T11:32:01.604Z,27.13
2018-09-09T11:34:29.673Z,27.25
2018-09-09T11:36:57.752Z,27.43
2018-09-09T11:39:25.757Z,27.56
2018-09-09T11:41:53.923Z,27.70
2018-09-09T11:44:21.964Z,27.67
2018-09-09T11:46:50.018Z,27.42
2018-09-09T11:49:18.040Z,27.71
2018-09-09T11:51:46.078Z,27.42
2018-09-09T11:54:14.152Z,27.44
2018-09-09T11:56:42.225Z,27.24
2018-09-09T11:59:10.375Z,27.35
2018-09-09T12:01:38.398Z,27.26
2018-09-09T12:04:06.424Z,27.04
2018-09-09T12:06:34.428Z,27.01
2018-09-09T12:09:02.529Z,26.55
2018-09-09T12:11:30.548Z,26.41
2018-09-09T12:13:58.651Z,26.51
2018-09-09T12:16:26.667Z,26.79
2018-09-09T12:18:54.705Z,26.85
2018-09-09T12:21:22.824Z,27.03
2018-09-09T12:23:50.857Z,27.08
2018-09-09T12:26:19.070Z,27.32
2018-09-09T12:28:47.139Z,27.45
2018-09-09T12:31:15.136Z,27.32
2018-09-09T12:33:43.330Z,27.01
2018-09-09T12:36:11.345Z,27.24
2018-09-09T12:38:39.361Z,27.12
2018-09-09T12:41:07.400Z,26.64
2018-09-09T12:43:40.918Z,27.08
2018-09-09T12:46:14.345Z,27.22
2018-09-09T12:48:48.896Z,27.79
2018-09-09T12:51:16.941Z,27.62
2018-09-09T12:53:44.980Z,27.95
2018-09-09T12:56:13.016Z,28.32
2018-09-09T12:58:41.024Z,28.22
2018-09-09T13:01:09.009Z,28.17
2018-09-09T13:03:37.009Z,28.36
2018-09-09T13:06:05.021Z,28.08
2018-09-09T13:08:33.053Z,28.10
2018-09-09T13:11:01.102Z,28.08
2018-09-09T13:13:29.282Z,27.90
2018-09-09T13:15:57.333Z,27.53
2018-09-09T13:18:25.358Z,27.60
2018-09-09T13:20:53.372Z,26.73
2018-09-09T13:23:21.480Z,27.34
2018-09-09T13:25:49.613Z,27.67
2018-09-09T13:28:17.713Z,27.72
2018-09-09T13:30:45.892Z,27.83
2018-09-09T13:33:13.929Z,27.77
2018-09-09T13:35:41.969Z,27.82
2018-09-09T13:38:10.146Z,27.76
2018-09-09T13:40:38.179Z,27.77
2018-09-09T13:43:06.207Z,28.15
2018-09-09T13:45:34.231Z,28.33
2018-09-09T13:48:02.304Z,28.19
2018-09-09T13:50:30.454Z,28.27
2018-09-09T13:52:58.558Z,27.63
2018-09-09T13:55:26.597Z,27.87
2018-09-09T13:57:54.677Z,27.43
2018-09-09T14:00:22.718Z,27.14
2018-09-09T14:02:50.888Z,27.11
2018-09-09T14:05:18.968Z,27.37
2018-09-09T14:07:47.067Z,27.18
2018-09-09T14:10:15.212Z,27.43
2018-09-09T14:12:43.234Z,27.35
2018-09-09T14:15:11.334Z,27.11
2018-09-09T14:17:39.352Z,27.16
2018-09-09T14:20:07.464Z,27.23
2018-09-09T14:22:35.507Z,27.31
2018-09-09T14:25:03.537Z,26.96
2018-09-09T14:27:31.564Z,26.92
2018-09-09T14:29:59.546Z,26.51
2018-09-09T14:32:27.569Z,26.09
2018-09-09T14:34:55.573Z,26.16
2018-09-09T14:37:23.657Z,26.28
2018-09-09T14:39:51.691Z,26.38
2018-09-09T14:42:19.729Z,26.14
2018-09-09T14:44:47.773Z,26.18
2018-09-09T14:47:16.344Z,26.19
2018-09-09T14:49:44.409Z,26.30
2018-09-09T14:52:12.436Z,26.28
2018-09-09T14:54:40.519Z,26.20
2018-09-09T14:57:08.537Z,26.25
2018-09-09T14:59:36.679Z,26.15
2018-09-09T15:02:04.710Z,26.27
2018-09-09T15:04:32.937Z,26.65
2018-09-09T15:07:01.080Z,26.67
2018-09-09T15:09:29.083Z,26.67
2018-09-09T15:11:57.102Z,26.70
2018-09-09T15:14:25.118Z,26.98
2018-09-09T15:16:53.168Z,27.16
2018-09-09T15:19:21.235Z,27.46
2018-09-09T15:21:49.336Z,27.77
2018-09-09T15:24:17.405Z,27.80
2018-09-09T15:26:45.449Z,27.70
2018-09-09T15:29:13.517Z,27.88
2018-09-09T15:31:41.517Z,27.80
2018-09-09T15:34:09.613Z,27.91
2018-09-09T15:36:37.592Z,27.85
2018-09-09T15:39:06.552Z,27.57
2018-09-09T15:41:34.596Z,27.70
2018-09-09T15:44:02.868Z,27.67
2018-09-09T15:46:30.901Z,27.54
2018-09-09T15:48:58.954Z,27.50
2018-09-09T15:51:26.984Z,27.36
2018-09-09T15:53:55.035Z,27.36
2018-09-09T15:56:23.073Z,27.47
2018-09-09T15:58:51.367Z,27.50
2018-09-09T16:01:19.381Z,27.43
2018-09-09T16:03:47.385Z,27.19
2018-09-09T16:06:15.393Z,27.23
2018-09-09T16:08:43.455Z,26.77
2018-09-09T16:11:11.509Z,26.85
2018-09-09T16:13:39.529Z,26.69
2018-09-09T16:16:07.541Z,26.86
2018-09-09T16:18:35.612Z,26.69
2018-09-09T16:21:03.620Z,26.59
2018-09-09T16:23:31.941Z,26.62
2018-09-09T16:25:59.955Z,26.41
2018-09-09T16:28:27.949Z,26.35
2018-09-09T16:30:55.941Z,26.43
2018-09-09T16:33:23.960Z,26.48
2018-09-09T16:35:52.360Z,26.31
2018-09-09T16:38:20.395Z,26.31
2018-09-09T16:40:48.463Z,26.30
2018-09-09T16:43:16.496Z,26.27
2018-09-09T16:45:44.497Z,26.27
2018-09-09T16:48:12.589Z,26.15
2018-09-09T16:50:40.613Z,26.16
2018-09-09T16:53:08.621Z,26.25
2018-09-09T16:55:36.648Z,26.29
2018-09-09T16:58:04.717Z,26.32
2018-09-09T17:00:32.909Z,26.46
2018-09-09T17:03:00.982Z,26.45
2018-09-09T17:05:29.040Z,26.52
2018-09-09T17:07:57.109Z,26.51
2018-09-09T17:10:25.205Z,26.20
2018-09-09T17:12:53.245Z,26.01
2018-09-09T17:15:21.295Z,26.07
2018-09-09T17:17:49.336Z,26.05
2018-09-09T17:20:17.444Z,26.13
2018-09-09T17:22:45.432Z,26.02
2018-09-09T17:25:13.461Z,26.04
2018-09-09T17:27:41.518Z,26.01
2018-09-09T17:30:09.525Z,25.90
2018-09-09T17:32:37.717Z,25.78
2018-09-09T17:35:05.765Z,25.64
2018-09-09T17:37:33.812Z,25.30
2018-09-09T17:40:01.888Z,25.22
2018-09-09T17:42:29.958Z,25.21
2018-09-09T17:44:57.981Z,25.18
2018-09-09T17:47:26.056Z,25.01
2018-09-09T17:49:54.101Z,24.98
2018-09-09T17:52:22.264Z,24.90
2018-09-09T17:54:50.246Z,24.83
2018-09-09T17:57:18.260Z,24.49
2018-09-09T17:59:46.319Z,24.47
2018-09-09T18:02:14.353Z,24.43
2018-09-09T18:04:42.382Z,24.39
2018-09-09T18:07:10.437Z,24.23
2018-09-09T18:09:38.477Z,24.16
2018-09-09T18:12:06.581Z,24.09
2018-09-09T18:14:34.634Z,24.04
2018-09-09T18:17:02.651Z,24.00
2018-09-09T18:19:30.775Z,23.94
2018-09-09T18:21:58.837Z,23.83
2018-09-09T18:24:26.945Z,23.79
2018-09-09T18:26:54.965Z,23.71
2018-09-09T18:29:23.295Z,23.73
2018-09-09T18:31:51.311Z,23.63
2018-09-09T18:34:19.340Z,23.53
2018-09-09T18:36:47.350Z,23.51
2018-09-09T18:39:15.398Z,23.43
2018-09-09T18:41:43.457Z,23.28
2018-09-09T18:44:11.509Z,23.24
2018-09-09T18:46:39.514Z,23.17
2018-09-09T18:49:07.645Z,23.18
2018-09-09T18:51:35.677Z,23.06
2018-09-09T18:54:03.827Z,22.97
2018-09-09T18:56:32.371Z,22.92
2018-09-09T18:59:01.777Z,22.81
2018-09-09T19:01:29.952Z,22.58
2018-09-09T19:03:58.288Z,22.38
2018-09-09T19:06:26.399Z,22.34
2018-09-09T19:08:54.683Z,22.30
2018-09-09T19:11:22.966Z,22.31
2018-09-09T19:13:51.335Z,22.30
2018-09-09T19:16:19.374Z,22.30
2018-09-09T19:18:47.657Z,22.21
2018-09-09T19:21:15.778Z,22.20
2018-09-09T19:23:43.836Z,22.19
2018-09-09T19:26:11.876Z,22.13
2018-09-09T19:28:40.054Z,22.15
2018-09-09T19:31:08.156Z,22.09
2018-09-09T19:33:36.248Z,21.98
2018-09-09T19:36:04.288Z,21.94
2018-09-09T19:38:32.430Z,21.89
2018-09-09T19:41:00.449Z,21.77
2018-09-09T19:43:28.498Z,21.79
2018-09-09T19:45:56.529Z,21.76
2018-09-09T19:48:24.776Z,21.70
2018-09-09T19:50:53.013Z,21.68
2018-09-09T19:53:21.112Z,21.65
2018-09-09T19:55:49.334Z,21.55
2018-09-09T19:58:17.426Z,21.51
2018-09-09T20:00:47.513Z,21.43
2018-09-09T20:03:15.553Z,21.31
2018-09-09T20:05:43.814Z,21.21
2018-09-09T20:08:11.911Z,21.26
2018-09-09T20:10:40.005Z,21.32
2018-09-09T20:13:08.161Z,21.25
2018-09-09T20:15:36.317Z,21.24
2018-09-09T20:18:04.504Z,21.17
2018-09-09T20:20:38.342Z,21.13
2018-09-09T20:23:06.361Z,21.00
2018-09-09T20:25:34.384Z,20.99
2018-09-09T20:28:02.428Z,20.91
2018-09-09T20:30:30.526Z,20.75
2018-09-09T20:32:58.602Z,20.71
2018-09-09T20:35:26.720Z,20.62
2018-09-09T20:37:54.774Z,20.58
2018-09-09T20:40:22.955Z,20.57
2018-09-09T20:42:51.001Z,20.59
2018-09-09T20:45:19.057Z,20.52
2018-09-09T20:47:47.162Z,20.48
2018-09-09T20:50:15.208Z,20.45
2018-09-09T20:52:43.226Z,20.42
2018-09-09T20:55:11.247Z,20.45
2018-09-09T20:57:39.258Z,20.42
2018-09-09T21:00:07.342Z,20.40
2018-09-09T21:02:35.330Z,20.38
2018-09-09T21:05:03.343Z,20.29
2018-09-09T21:07:31.381Z,20.14
2018-09-09T21:09:59.404Z,20.14
2018-09-09T21:12:27.442Z,20.03
2018-09-09T21:14:55.493Z,20.04
2018-09-09T21:17:23.505Z,20.10
2018-09-09T21:19:51.536Z,20.05
2018-09-09T21:22:19.568Z,20.07
2018-09-09T21:24:47.613Z,20.03
2018-09-09T21:27:15.681Z,20.04
2018-09-09T21:29:43.692Z,19.97
2018-09-09T21:32:11.744Z,19.84
2018-09-09T21:34:39.841Z,19.87
2018-09-09T21:37:07.964Z,19.81
2018-09-09T21:39:36.014Z,19.74
2018-09-09T21:42:04.195Z,19.70
2018-09-09T21:44:32.337Z,19.67
2018-09-09T21:47:01.602Z,19.60
2018-09-09T21:49:29.613Z,19.52
2018-09-09T21:51:57.693Z,19.46
2018-09-09T21:54:25.796Z,19.39
2018-09-09T21:56:53.912Z,19.24
2018-09-09T21:59:21.998Z,19.14
2018-09-09T22:01:55.572Z,19.15
2018-09-09T22:04:23.723Z,19.17
2018-09-09T22:06:51.764Z,19.08
2018-09-09T22:09:19.769Z,18.98
2018-09-09T22:11:47.865Z,18.87
2018-09-09T22:14:15.978Z,18.90
2018-09-09T22:16:44.036Z,18.92
2018-09-09T22:19:12.085Z,18.91
2018-09-09T22:21:40.125Z,18.88
2018-09-09T22:24:08.194Z,18.87
2018-09-09T22:26:36.264Z,18.82
2018-09-09T22:29:04.257Z,18.82
2018-09-09T22:31:32.285Z,18.76
2018-09-09T22:34:00.258Z,18.73
2018-09-09T22:36:28.316Z,18.71
2018-09-09T22:38:56.444Z,18.69
2018-09-09T22:41:24.584Z,18.68
2018-09-09T22:43:52.604Z,18.66
2018-09-09T22:46:20.615Z,18.64
2018-09-09T22:48:48.604Z,18.60
2018-09-09T22:51:16.724Z,18.57
2018-09-09T22:53:44.737Z,18.53
2018-09-09T22:56:12.847Z,18.48
2018-09-09T22:58:40.883Z,18.31
2018-09-09T23:01:08.996Z,18.11
2018-09-09T23:03:37.061Z,17.97
2018-09-09T23:06:05.069Z,17.81
2018-09-09T23:08:33.104Z,17.79
2018-09-09T23:11:01.174Z,17.76
2018-09-09T23:13:29.180Z,17.82
2018-09-09T23:15:57.278Z,17.94
2018-09-09T23:18:25.299Z,17.87
2018-09-09T23:20:53.356Z,18.00
2018-09-09T23:23:21.470Z,18.02
2018-09-09T23:25:49.505Z,18.08
2018-09-09T23:28:17.489Z,18.03
2018-09-09T23:30:45.496Z,17.95
2018-09-09T23:33:13.500Z,17.88
2018-09-09T23:35:41.541Z,17.96
2018-09-09T23:38:09.572Z,17.87
2018-09-09T23:40:37.572Z,17.84
2018-09-09T23:43:05.675Z,17.75
2018-09-09T23:45:33.678Z,17.69
2018-09-09T23:48:01.818Z,17.72
2018-09-09T23:50:30.101Z,17.64
2018-09-09T23:52:58.284Z,17.63
2018-09-09T23:55:26.357Z,17.59
2018-09-09T23:57:54.394Z,17.63
